createdAt,value
2023-05-11T00:00:43.800Z,12.64
2023-05-11T00:01:43.787Z,12.60
2023-05-11T00:02:43.879Z,12.57
2023-05-11T00:03:43.812Z,12.57
2023-05-11T00:04:43.898Z,12.63
2023-05-11T00:05:43.742Z,12.56
2023-05-11T00:06:43.739Z,12.62
2023-05-11T00:07:43.743Z,12.60
2023-05-11T00:08:43.749Z,12.69
2023-05-11T00:09:43.734Z,12.70
2023-05-11T00:10:43.695Z,12.62
2023-05-11T00:11:43.688Z,12.74
2023-05-11T00:12:43.679Z,12.71
2023-05-11T00:13:43.670Z,12.75
2023-05-11T00:14:43.663Z,12.75
2023-05-11T00:15:43.646Z,12.82
2023-05-11T00:16:43.635Z,12.74
2023-05-11T00:17:43.625Z,12.77
2023-05-11T00:18:43.679Z,12.69
2023-05-11T00:19:43.615Z,12.63
2023-05-11T00:20:43.594Z,12.64
2023-05-11T00:21:44.597Z,12.69
2023-05-11T00:22:44.959Z,12.77
2023-05-11T00:23:44.581Z,12.74
2023-05-11T00:24:43.557Z,12.63
2023-05-11T00:25:43.545Z,12.75
2023-05-11T00:26:43.558Z,12.92
2023-05-11T00:27:43.547Z,12.88
2023-05-11T00:28:43.529Z,12.85
2023-05-11T00:29:43.495Z,12.85
2023-05-11T00:30:43.509Z,12.97
2023-05-11T00:31:43.494Z,12.88
2023-05-11T00:32:43.515Z,12.77
2023-05-11T00:33:43.470Z,12.79
2023-05-11T00:34:43.447Z,12.67
2023-05-11T00:35:43.446Z,12.57
2023-05-11T00:36:43.425Z,12.70
2023-05-11T00:37:43.441Z,12.81
2023-05-11T00:38:43.433Z,12.63
2023-05-11T00:39:43.429Z,12.75
2023-05-11T00:40:43.409Z,12.74
2023-05-11T00:41:43.394Z,12.70
2023-05-11T00:42:43.387Z,12.63
2023-05-11T00:43:43.364Z,12.63
2023-05-11T00:44:43.383Z,12.74
2023-05-11T00:45:43.338Z,12.74
2023-05-11T00:46:43.402Z,12.69
2023-05-11T00:47:43.339Z,12.77
2023-05-11T00:48:43.327Z,12.66
2023-05-11T00:49:43.302Z,12.77
2023-05-11T00:50:43.303Z,12.74
2023-05-11T00:51:43.316Z,12.69
2023-05-11T00:52:43.270Z,12.84
2023-05-11T00:53:43.278Z,12.87
2023-05-11T00:54:43.258Z,12.85
2023-05-11T00:55:43.275Z,12.82
2023-05-11T00:56:43.244Z,12.95
2023-05-11T00:57:43.265Z,13.03
2023-05-11T00:58:43.221Z,12.96
2023-05-11T00:59:43.233Z,12.85
2023-05-11T01:00:43.237Z,12.82
2023-05-11T01:01:43.239Z,12.97
2023-05-11T01:02:43.265Z,12.87
2023-05-11T01:03:43.183Z,12.81
2023-05-11T01:04:43.179Z,12.82
2023-05-11T01:05:43.173Z,12.77
2023-05-11T01:06:43.154Z,12.60
2023-05-11T01:07:43.140Z,12.56
2023-05-11T01:08:43.119Z,12.75
2023-05-11T01:09:43.138Z,12.51
2023-05-11T01:10:43.130Z,12.70
2023-05-11T01:11:43.160Z,12.69
2023-05-11T01:12:43.088Z,12.66
2023-05-11T01:13:43.078Z,12.71
2023-05-11T01:14:43.081Z,12.79
2023-05-11T01:15:43.074Z,12.79
2023-05-11T01:16:43.101Z,12.69
2023-05-11T01:17:43.062Z,12.87
2023-05-11T01:18:43.047Z,12.66
2023-05-11T01:19:43.051Z,12.78
2023-05-11T01:20:43.022Z,12.74
2023-05-11T01:21:43.002Z,12.54
2023-05-11T01:22:43.029Z,12.56
2023-05-11T01:23:43.000Z,12.70
2023-05-11T01:24:42.994Z,12.60
2023-05-11T01:25:43.002Z,12.62
2023-05-11T01:26:42.993Z,12.63
2023-05-11T01:27:42.974Z,12.74
2023-05-11T01:28:42.982Z,12.71
2023-05-11T01:29:42.950Z,12.70
2023-05-11T01:30:42.925Z,12.63
2023-05-11T01:31:42.962Z,12.64
2023-05-11T01:32:42.945Z,12.59
2023-05-11T01:33:42.911Z,12.66
2023-05-11T01:34:42.890Z,12.56
2023-05-11T01:35:42.887Z,12.56
2023-05-11T01:36:42.916Z,12.52
2023-05-11T01:37:42.860Z,12.52
2023-05-11T01:38:43.856Z,12.66
2023-05-11T01:39:42.833Z,12.69
2023-05-11T01:40:42.840Z,12.63
2023-05-11T01:41:42.839Z,12.70
2023-05-11T01:42:42.822Z,12.54
2023-05-11T01:43:42.853Z,12.64
2023-05-11T01:44:42.799Z,12.66
2023-05-11T01:45:42.797Z,12.63
2023-05-11T01:46:42.786Z,12.56
2023-05-11T01:47:42.856Z,12.64
2023-05-11T01:48:42.743Z,12.49
2023-05-11T01:49:42.749Z,12.46
2023-05-11T01:50:42.728Z,12.31
2023-05-11T01:51:42.718Z,12.46
2023-05-11T01:52:42.713Z,12.31
2023-05-11T01:53:42.713Z,12.49
2023-05-11T01:54:42.696Z,12.44
2023-05-11T01:55:42.679Z,12.54
2023-05-11T01:56:42.698Z,12.46
2023-05-11T01:57:42.675Z,12.41
2023-05-11T01:58:42.663Z,12.44
2023-05-11T01:59:42.671Z,12.38
2023-05-11T02:00:42.634Z,12.29
2023-05-11T02:01:42.696Z,12.38
2023-05-11T02:02:42.694Z,12.51
2023-05-11T02:03:42.690Z,12.31
2023-05-11T02:04:42.592Z,12.30
2023-05-11T02:05:42.585Z,12.41
2023-05-11T02:06:42.589Z,12.38
2023-05-11T02:07:42.571Z,12.42
2023-05-11T02:08:42.555Z,12.44
2023-05-11T02:09:42.545Z,12.45
2023-05-11T02:10:42.564Z,12.45
2023-05-11T02:11:42.557Z,12.38
2023-05-11T02:12:42.529Z,12.29
2023-05-11T02:13:42.509Z,12.21
2023-05-11T02:14:42.533Z,12.27
2023-05-11T02:15:42.573Z,12.30
2023-05-11T02:16:42.481Z,12.44
2023-05-11T02:17:42.509Z,12.41
2023-05-11T02:18:42.509Z,12.51
2023-05-11T02:19:42.451Z,12.52
2023-05-11T02:20:42.475Z,12.56
2023-05-11T02:21:42.428Z,12.54
2023-05-11T02:22:43.443Z,12.54
2023-05-11T02:23:42.410Z,12.57
2023-05-11T02:24:42.432Z,12.52
2023-05-11T02:25:42.412Z,12.54
2023-05-11T02:26:42.398Z,12.51
2023-05-11T02:27:42.373Z,12.54
2023-05-11T02:28:42.373Z,12.48
2023-05-11T02:29:42.415Z,12.49
2023-05-11T02:30:42.357Z,12.37
2023-05-11T02:31:42.468Z,12.26
2023-05-11T02:32:42.357Z,12.27
2023-05-11T02:33:42.318Z,12.39
2023-05-11T02:34:42.323Z,12.41
2023-05-11T02:35:42.323Z,12.30
2023-05-11T02:36:42.311Z,12.34
2023-05-11T02:37:42.277Z,12.30
2023-05-11T02:38:42.273Z,12.20
2023-05-11T02:39:42.283Z,12.20
2023-05-11T02:40:42.255Z,12.21
2023-05-11T02:41:43.268Z,12.20
2023-05-11T02:42:42.236Z,12.20
2023-05-11T02:43:42.239Z,12.27
2023-05-11T02:44:42.229Z,12.21
2023-05-11T02:45:42.208Z,12.30
2023-05-11T02:46:42.240Z,12.26
2023-05-11T02:47:43.265Z,12.34
2023-05-11T02:48:42.190Z,12.31
2023-05-11T02:49:42.179Z,12.29
2023-05-11T02:50:42.154Z,12.37
2023-05-11T02:51:42.137Z,12.31
2023-05-11T02:52:42.122Z,12.34
2023-05-11T02:53:42.146Z,12.44
2023-05-11T02:54:42.109Z,12.46
2023-05-11T02:55:42.117Z,12.54
2023-05-11T02:56:42.126Z,12.56
2023-05-11T02:57:42.099Z,12.54
2023-05-11T02:58:42.077Z,12.59
2023-05-11T02:59:42.150Z,12.57
2023-05-11T03:00:42.130Z,12.57
2023-05-11T03:01:42.186Z,12.66
2023-05-11T03:02:42.165Z,12.54
2023-05-11T03:03:42.306Z,12.69
2023-05-11T03:04:42.044Z,12.66
2023-05-11T03:05:42.059Z,12.66
2023-05-11T03:06:42.070Z,12.59
2023-05-11T03:07:42.038Z,12.60
2023-05-11T03:08:41.997Z,12.69
2023-05-11T03:09:41.969Z,12.71
2023-05-11T03:10:42.034Z,12.66
2023-05-11T03:11:41.973Z,12.67
2023-05-11T03:12:41.955Z,12.75
2023-05-11T03:13:41.923Z,12.69
2023-05-11T03:14:41.923Z,12.70
2023-05-11T03:15:41.916Z,12.70
2023-05-11T03:16:41.963Z,12.77
2023-05-11T03:17:41.941Z,12.71
2023-05-11T03:18:41.950Z,12.70
2023-05-11T03:19:41.914Z,12.81
2023-05-11T03:20:41.874Z,12.75
2023-05-11T03:21:41.881Z,12.84
2023-05-11T03:22:41.848Z,12.87
2023-05-11T03:23:41.830Z,12.78
2023-05-11T03:24:41.820Z,12.74
2023-05-11T03:25:41.808Z,12.77
2023-05-11T03:26:41.821Z,12.70
2023-05-11T03:27:41.812Z,12.63
2023-05-11T03:28:41.798Z,12.60
2023-05-11T03:29:41.771Z,12.52
2023-05-11T03:30:41.786Z,12.60
2023-05-11T03:31:41.843Z,12.63
2023-05-11T03:32:41.768Z,12.60
2023-05-11T03:33:41.749Z,12.59
2023-05-11T03:34:41.734Z,12.79
2023-05-11T03:35:41.740Z,12.77
2023-05-11T03:36:41.705Z,12.66
2023-05-11T03:37:41.712Z,12.81
2023-05-11T03:38:41.694Z,12.63
2023-05-11T03:39:41.691Z,12.66
2023-05-11T03:40:41.713Z,12.69
2023-05-11T03:41:41.684Z,12.74
2023-05-11T03:42:41.662Z,12.62
2023-05-11T03:43:41.658Z,12.54
2023-05-11T03:44:41.644Z,12.62
2023-05-11T03:45:41.699Z,12.66
2023-05-11T03:46:41.610Z,12.59
2023-05-11T03:47:41.638Z,12.52
2023-05-11T03:48:41.586Z,12.56
2023-05-11T03:49:41.611Z,12.54
2023-05-11T03:50:41.572Z,12.66
2023-05-11T03:51:41.557Z,12.54
2023-05-11T03:52:41.544Z,12.54
2023-05-11T03:53:41.551Z,12.51
2023-05-11T03:54:41.547Z,12.46
2023-05-11T03:55:41.518Z,12.46
2023-05-11T03:56:41.533Z,12.44
2023-05-11T03:57:41.525Z,12.45
2023-05-11T03:58:41.495Z,12.27
2023-05-11T03:59:41.503Z,12.24
2023-05-11T04:00:41.490Z,12.23
2023-05-11T04:01:41.485Z,12.31
2023-05-11T04:02:41.509Z,12.33
2023-05-11T04:03:41.515Z,12.21
2023-05-11T04:04:41.502Z,12.21
2023-05-11T04:05:42.466Z,12.21
2023-05-11T04:06:41.456Z,12.21
2023-05-11T04:07:41.409Z,12.19
2023-05-11T04:08:41.406Z,12.27
2023-05-11T04:09:41.388Z,12.27
2023-05-11T04:10:41.373Z,12.29
2023-05-11T04:11:41.390Z,12.39
2023-05-11T04:12:41.348Z,12.38
2023-05-11T04:13:41.355Z,12.49
2023-05-11T04:14:41.351Z,12.48
2023-05-11T04:15:41.367Z,12.56
2023-05-11T04:16:41.474Z,12.56
2023-05-11T04:17:41.398Z,12.56
2023-05-11T04:18:41.384Z,12.54
2023-05-11T04:19:41.279Z,12.62
2023-05-11T04:20:41.301Z,12.70
2023-05-11T04:21:41.272Z,12.71
2023-05-11T04:22:41.261Z,12.56
2023-05-11T04:23:41.240Z,12.54
2023-05-11T04:24:41.232Z,12.59
2023-05-11T04:25:41.232Z,12.69
2023-05-11T04:26:41.225Z,12.63
2023-05-11T04:27:41.233Z,12.67
2023-05-11T04:28:41.186Z,12.64
2023-05-11T04:29:41.184Z,12.69
2023-05-11T04:30:41.184Z,12.71
2023-05-11T04:31:41.215Z,12.74
2023-05-11T04:32:41.189Z,12.69
2023-05-11T04:33:41.165Z,12.74
2023-05-11T04:34:41.149Z,12.69
2023-05-11T04:35:41.140Z,12.74
2023-05-11T04:36:41.114Z,12.75
2023-05-11T04:37:41.092Z,12.71
2023-05-11T04:38:41.087Z,12.89
2023-05-11T04:39:41.077Z,12.81
2023-05-11T04:40:41.064Z,12.88
2023-05-11T04:41:41.080Z,12.77
2023-05-11T04:42:41.277Z,12.77
2023-05-11T04:43:41.053Z,12.64
2023-05-11T04:44:41.048Z,12.64
2023-05-11T04:45:41.014Z,12.66
2023-05-11T04:46:41.053Z,12.69
2023-05-11T04:47:41.001Z,12.66
2023-05-11T04:48:41.004Z,12.71
2023-05-11T04:49:40.976Z,12.71
2023-05-11T04:50:40.969Z,12.71
2023-05-11T04:51:40.961Z,12.71
2023-05-11T04:52:40.942Z,12.75
2023-05-11T04:53:42.342Z,12.78
2023-05-11T04:54:40.927Z,12.67
2023-05-11T04:55:40.913Z,12.66
2023-05-11T04:56:40.947Z,12.62
2023-05-11T04:57:40.886Z,12.67
2023-05-11T04:58:41.881Z,12.69
2023-05-11T04:59:40.882Z,12.79
2023-05-11T05:00:40.968Z,12.69
2023-05-11T05:01:40.902Z,12.67
2023-05-11T05:02:40.889Z,12.74
2023-05-11T05:03:40.917Z,12.75
2023-05-11T05:04:40.840Z,12.77
2023-05-11T05:05:40.873Z,12.88
2023-05-11T05:06:40.811Z,12.96
2023-05-11T05:07:40.824Z,12.82
2023-05-11T05:08:40.791Z,12.96
2023-05-11T05:09:42.430Z,12.96
2023-05-11T05:10:40.802Z,12.97
2023-05-11T05:11:40.785Z,13.03
2023-05-11T05:12:40.756Z,13.12
2023-05-11T05:13:40.765Z,13.03
2023-05-11T05:14:40.762Z,13.12
2023-05-11T05:15:40.753Z,13.11
2023-05-11T05:16:40.768Z,13.15
2023-05-11T05:17:40.795Z,13.20
2023-05-11T05:18:40.799Z,13.14
2023-05-11T05:19:40.715Z,13.30
2023-05-11T05:20:40.693Z,13.27
2023-05-11T05:21:40.710Z,13.46
2023-05-11T05:22:40.675Z,13.40
2023-05-11T05:23:40.667Z,13.36
2023-05-11T05:24:40.666Z,13.17
2023-05-11T05:25:40.651Z,13.04
2023-05-11T05:26:40.628Z,13.09
2023-05-11T05:27:40.614Z,13.11
2023-05-11T05:28:40.837Z,13.17
2023-05-11T05:29:40.609Z,13.29
2023-05-11T05:30:40.646Z,13.29
2023-05-11T05:31:40.599Z,13.33
2023-05-11T05:32:40.610Z,13.30
2023-05-11T05:33:40.577Z,13.24
2023-05-11T05:34:40.558Z,13.30
2023-05-11T05:35:40.541Z,13.41
2023-05-11T05:36:40.553Z,13.29
2023-05-11T05:37:40.537Z,13.33
2023-05-11T05:38:40.536Z,13.37
2023-05-11T05:39:40.505Z,13.20
2023-05-11T05:40:40.499Z,13.12
2023-05-11T05:41:40.496Z,13.11
2023-05-11T05:42:40.495Z,13.15
2023-05-11T05:43:40.486Z,13.25
2023-05-11T05:44:40.472Z,13.32
2023-05-11T05:45:40.452Z,13.20
2023-05-11T05:46:40.552Z,13.25
2023-05-11T05:47:40.450Z,13.27
2023-05-11T05:48:40.411Z,13.36
2023-05-11T05:49:40.407Z,13.37
2023-05-11T05:50:40.394Z,13.37
2023-05-11T05:51:40.395Z,13.36
2023-05-11T05:52:40.391Z,13.29
2023-05-11T05:53:40.352Z,13.25
2023-05-11T05:54:40.359Z,13.32
2023-05-11T05:55:40.403Z,13.32
2023-05-11T05:56:40.326Z,13.38
2023-05-11T05:57:40.353Z,13.36
2023-05-11T05:58:40.319Z,13.32
2023-05-11T05:59:52.676Z,13.32
2023-05-11T06:00:40.330Z,13.49
2023-05-11T06:01:40.327Z,13.41
2023-05-11T06:02:40.399Z,13.49
2023-05-11T06:03:40.496Z,13.37
2023-05-11T06:04:40.341Z,13.38
2023-05-11T06:05:40.279Z,13.24
2023-05-11T06:06:40.292Z,13.15
2023-05-11T06:07:40.267Z,13.32
2023-05-11T06:08:40.266Z,13.30
2023-05-11T06:09:40.242Z,13.46
2023-05-11T06:10:40.236Z,13.40
2023-05-11T06:11:40.243Z,13.44
2023-05-11T06:12:40.215Z,13.38
2023-05-11T06:13:40.204Z,13.47
2023-05-11T06:14:40.182Z,13.62
2023-05-11T06:15:43.031Z,13.51
2023-05-11T06:16:41.258Z,13.67
2023-05-11T06:17:40.164Z,13.70
2023-05-11T06:18:40.154Z,13.71
2023-05-11T06:19:40.125Z,13.56
2023-05-11T06:20:40.122Z,13.69
2023-05-11T06:21:40.115Z,13.67
2023-05-11T06:22:40.092Z,13.71
2023-05-11T06:23:40.069Z,13.67
2023-05-11T06:24:40.071Z,13.83
2023-05-11T06:25:40.069Z,13.96
2023-05-11T06:26:40.033Z,13.89
2023-05-11T06:27:41.036Z,13.77
2023-05-11T06:28:40.028Z,13.89
2023-05-11T06:29:40.028Z,13.87
2023-05-11T06:30:40.010Z,13.88
2023-05-11T06:31:40.015Z,13.95
2023-05-11T06:32:40.010Z,14.04
2023-05-11T06:33:39.980Z,14.13
2023-05-11T06:34:39.982Z,14.28
2023-05-11T06:35:39.954Z,14.29
2023-05-11T06:36:39.965Z,14.34
2023-05-11T06:37:39.951Z,14.43
2023-05-11T06:38:39.942Z,14.28
2023-05-11T06:39:39.939Z,14.43
2023-05-11T06:40:39.923Z,14.35
2023-05-11T06:41:39.899Z,14.43
2023-05-11T06:42:40.889Z,14.39
2023-05-11T06:43:39.917Z,14.35
2023-05-11T06:44:39.954Z,14.44
2023-05-11T06:45:39.894Z,14.38
2023-05-11T06:46:39.855Z,14.39
2023-05-11T06:47:39.927Z,14.43
2023-05-11T06:48:39.849Z,14.42
2023-05-11T06:49:39.830Z,14.47
2023-05-11T06:50:39.844Z,14.49
2023-05-11T06:51:39.807Z,14.53
2023-05-11T06:52:39.800Z,14.56
2023-05-11T06:53:39.792Z,14.61
2023-05-11T06:54:39.768Z,14.61
2023-05-11T06:55:39.768Z,14.67
2023-05-11T06:56:39.761Z,14.54
2023-05-11T06:57:40.056Z,14.53
2023-05-11T06:58:39.750Z,14.62
2023-05-11T06:59:39.737Z,14.62
2023-05-11T07:00:39.704Z,14.38
2023-05-11T07:01:39.777Z,14.43
2023-05-11T07:02:39.770Z,14.49
2023-05-11T07:03:39.697Z,14.64
2023-05-11T07:04:39.749Z,14.64
2023-05-11T07:05:39.666Z,14.67
2023-05-11T07:06:39.671Z,14.64
2023-05-11T07:07:39.683Z,14.62
2023-05-11T07:08:39.650Z,14.74
2023-05-11T07:09:41.907Z,14.46
2023-05-11T07:10:39.620Z,14.44
2023-05-11T07:11:39.625Z,14.37
2023-05-11T07:12:39.654Z,14.34
2023-05-11T07:13:39.601Z,14.37
2023-05-11T07:14:39.591Z,14.50
2023-05-11T07:15:39.582Z,14.44
2023-05-11T07:16:39.590Z,14.38
2023-05-11T07:17:39.681Z,14.47
2023-05-11T07:18:39.611Z,14.61
2023-05-11T07:19:39.539Z,14.57
2023-05-11T10:41:28.880Z,18.00
2023-05-11T10:42:28.869Z,18.00
2023-05-11T10:43:28.888Z,18.07
2023-05-11T10:44:28.834Z,18.17
2023-05-11T10:45:28.847Z,18.19
2023-05-11T10:46:30.431Z,18.13
2023-05-11T10:47:28.849Z,18.18
2023-05-11T10:48:28.820Z,18.18
2023-05-11T10:49:28.789Z,18.06
2023-05-11T10:50:28.779Z,18.04
2023-05-11T10:51:28.772Z,18.06
2023-05-11T10:52:29.455Z,18.10
2023-05-11T10:53:28.777Z,18.19
2023-05-11T10:54:28.731Z,17.95
2023-05-11T10:55:28.726Z,17.95
2023-05-11T10:56:28.707Z,18.06
2023-05-11T10:57:28.740Z,18.00
2023-05-11T10:58:28.683Z,18.15
2023-05-11T10:59:28.677Z,18.13
2023-05-11T11:00:28.688Z,18.06
2023-05-11T11:01:28.687Z,17.87
2023-05-11T11:02:28.689Z,17.67
2023-05-11T11:03:28.649Z,17.76
2023-05-11T11:04:29.755Z,17.85
2023-05-11T11:05:28.649Z,18.15
2023-05-11T11:06:28.612Z,18.09
2023-05-11T11:07:28.611Z,18.07
2023-05-11T11:08:28.596Z,18.02
2023-05-11T11:09:28.571Z,17.95
2023-05-11T11:10:28.577Z,18.13
2023-05-11T11:11:28.604Z,18.22
2023-05-11T11:12:28.601Z,18.28
2023-05-11T11:13:28.560Z,18.18
2023-05-11T11:14:28.596Z,18.13
2023-05-11T11:15:28.653Z,18.39
2023-05-11T11:16:28.625Z,18.44
2023-05-11T11:59:26.789Z,19.17
2023-05-11T12:00:13.768Z,18.94
2023-05-11T12:03:07.737Z,18.74
2023-05-11T12:03:37.274Z,18.67
2023-05-11T12:04:58.155Z,18.84
2023-05-11T12:05:37.173Z,18.67
2023-05-11T12:06:37.160Z,18.72
2023-05-11T12:07:37.154Z,18.79
2023-05-11T12:10:04.710Z,18.62
2023-05-11T12:11:03.457Z,18.79
2023-05-11T12:12:16.488Z,18.76
2023-05-11T12:29:38.403Z,18.28
2023-05-11T12:29:58.413Z,18.25
2023-05-11T12:31:00.490Z,18.22
2023-05-11T12:32:30.021Z,18.13
2023-05-11T12:36:11.188Z,18.00
2023-05-11T12:36:50.303Z,17.88
2023-05-11T12:37:50.249Z,17.99
2023-05-11T12:38:50.306Z,17.99
2023-05-11T12:39:50.217Z,17.89
2023-05-11T12:46:44.957Z,17.87
2023-05-11T12:47:34.214Z,17.88
2023-05-11T12:48:34.188Z,17.99
2023-05-11T12:52:27.202Z,17.87
2023-05-11T12:53:26.139Z,17.88
2023-05-11T12:54:26.128Z,17.55
2023-05-11T12:55:26.092Z,17.63
2023-05-11T12:56:26.067Z,17.62
2023-05-11T15:52:19.416Z,16.09
2023-05-11T15:53:19.295Z,16.01
2023-05-11T15:54:19.326Z,16.07
2023-05-11T15:55:19.312Z,16.12
2023-05-11T15:56:19.291Z,16.23
2023-05-11T15:57:19.266Z,16.22
2023-05-11T15:58:19.256Z,16.31
2023-05-11T15:59:19.251Z,16.26
2023-05-11T16:00:19.476Z,16.26
2023-05-11T16:01:19.273Z,16.37
2023-05-11T16:02:19.256Z,16.45
2023-05-11T16:03:19.484Z,16.42
2023-05-11T16:04:19.195Z,16.44
2023-05-11T16:05:19.184Z,16.49
2023-05-11T16:06:19.165Z,16.48
2023-05-11T16:07:19.147Z,16.58
2023-05-11T16:08:19.143Z,16.68
2023-05-11T16:09:19.142Z,16.58
2023-05-11T16:10:19.412Z,16.75
2023-05-11T16:11:19.105Z,16.70
2023-05-11T16:12:19.096Z,16.73
2023-05-11T16:13:19.100Z,16.80
2023-05-11T16:14:19.101Z,16.73
2023-05-11T16:15:19.101Z,16.81
2023-05-11T16:16:19.080Z,16.83
2023-05-11T16:17:19.104Z,16.93
2023-05-11T16:18:19.117Z,16.77
2023-05-11T16:19:19.938Z,16.85
2023-05-11T16:20:19.146Z,16.65
2023-05-11T16:21:19.004Z,16.59
2023-05-11T16:22:39.991Z,16.45
2023-05-11T16:23:18.993Z,16.52
2023-05-11T16:24:19.087Z,16.50
2023-05-11T16:25:18.989Z,16.42
2023-05-11T16:26:18.977Z,16.41
2023-05-11T16:27:18.932Z,16.15
2023-05-11T16:28:18.945Z,16.06
2023-05-11T16:29:18.918Z,15.97
2023-05-11T16:30:24.852Z,15.94
2023-05-11T16:31:19.916Z,15.94
2023-05-11T16:32:18.887Z,16.00
2023-05-11T16:33:18.886Z,16.03
2023-05-11T16:34:18.866Z,16.06
2023-05-11T16:35:18.892Z,16.15
2023-05-11T16:36:18.845Z,16.26
2023-05-11T16:37:18.837Z,16.25
2023-05-11T16:38:18.829Z,16.25
2023-05-11T16:39:18.805Z,16.37
2023-05-11T16:40:19.430Z,16.27
2023-05-11T16:41:18.786Z,16.27
2023-05-11T16:42:20.889Z,16.33
2023-05-11T16:43:18.808Z,16.35
2023-05-11T16:44:18.765Z,16.42
2023-05-11T16:45:18.759Z,16.40
2023-05-11T16:46:18.806Z,16.40
2023-05-11T16:47:18.765Z,16.30
2023-05-11T16:48:18.710Z,16.30
2023-05-11T16:49:18.702Z,16.26
2023-05-11T16:50:19.085Z,16.31
2023-05-11T16:51:18.693Z,16.31
2023-05-11T16:52:18.670Z,16.34
2023-05-11T16:53:18.682Z,16.27
2023-05-11T16:54:18.659Z,16.27
2023-05-11T16:55:18.634Z,16.35
2023-05-11T16:56:18.705Z,16.26
2023-05-11T16:57:18.611Z,16.27
2023-05-11T16:58:18.606Z,16.34
2023-05-11T16:59:18.601Z,16.25
2023-05-11T17:00:18.685Z,16.31
2023-05-11T17:01:18.642Z,16.34
2023-05-11T17:02:18.567Z,16.35
2023-05-11T17:03:18.716Z,16.30
2023-05-11T17:04:21.600Z,16.09
2023-05-11T17:05:26.209Z,16.12
2023-05-11T17:06:20.700Z,16.07
2023-05-11T17:07:18.630Z,16.01
2023-05-11T17:08:18.517Z,16.06
2023-05-11T17:18:18.628Z,16.18
2023-05-11T17:18:34.897Z,16.11
2023-05-11T17:19:34.860Z,15.96
2023-05-11T17:21:17.513Z,15.89
2023-05-11T17:21:34.827Z,15.82
2023-05-11T17:22:34.809Z,15.78
2023-05-11T17:23:34.781Z,15.63
2023-05-11T17:24:34.869Z,15.60
2023-05-11T17:25:34.765Z,15.56
2023-05-11T17:26:46.382Z,15.67
2023-05-11T17:27:35.738Z,15.63
2023-05-11T17:28:34.771Z,15.81
2023-05-11T17:29:34.754Z,15.82
2023-05-11T17:30:47.322Z,15.82
2023-05-11T17:31:35.864Z,15.89
2023-05-11T17:32:35.076Z,15.96
2023-05-11T17:33:34.827Z,15.94
2023-05-11T17:34:34.747Z,15.89
2023-05-11T17:35:34.656Z,15.92
2023-05-11T17:36:34.647Z,15.97
2023-05-11T17:37:34.644Z,16.00
2023-05-11T17:38:34.651Z,15.96
2023-05-11T17:39:34.637Z,15.99
2023-05-11T17:40:34.610Z,15.92
2023-05-11T17:41:34.596Z,15.84
2023-05-11T17:42:34.597Z,15.74
2023-05-11T17:43:34.646Z,15.66
2023-05-11T17:44:34.585Z,15.57
2023-05-11T17:45:34.582Z,15.59
2023-05-11T17:46:34.795Z,15.57
2023-05-11T17:47:34.645Z,15.38
2023-05-11T17:48:34.533Z,15.52
2023-05-11T17:49:34.531Z,15.42
2023-05-11T17:50:34.543Z,15.39
2023-05-11T17:51:34.538Z,15.38
2023-05-11T17:52:34.522Z,15.35
2023-05-11T17:53:34.468Z,15.33
2023-05-11T17:54:34.443Z,15.36
2023-05-11T17:55:34.455Z,15.33
2023-05-11T17:56:34.424Z,15.39
2023-05-11T17:57:34.449Z,15.48
2023-05-11T17:58:34.424Z,15.49
2023-05-11T17:59:34.439Z,15.45
2023-05-11T18:00:34.470Z,15.30
2023-05-11T18:01:34.435Z,15.41
2023-05-11T18:02:34.525Z,15.33
2023-05-11T18:03:34.442Z,15.35
2023-05-11T18:04:34.343Z,15.24
2023-05-11T18:05:47.486Z,15.11
2023-05-11T18:06:35.312Z,15.21
2023-05-11T18:07:34.323Z,15.08
2023-05-11T18:08:34.337Z,15.13
2023-05-11T18:09:34.345Z,15.05
2023-05-11T18:10:34.344Z,15.08
2023-05-11T18:11:34.274Z,14.99
2023-05-11T18:12:34.371Z,14.90
2023-05-11T18:13:34.372Z,14.98
2023-05-11T18:14:34.223Z,14.99
2023-05-11T18:15:34.286Z,14.95
2023-05-11T18:16:34.379Z,15.05
2023-05-11T18:17:34.250Z,15.02
2023-05-11T18:18:34.434Z,15.02
2023-05-11T18:19:34.169Z,15.05
2023-05-11T18:20:34.199Z,15.09
2023-05-11T18:21:34.174Z,15.21
2023-05-11T18:22:34.144Z,15.23
2023-05-11T18:23:34.139Z,15.20
2023-05-11T18:24:34.121Z,15.23
2023-05-11T18:25:34.124Z,15.33
2023-05-11T18:26:34.112Z,15.26
2023-05-11T18:27:34.085Z,15.28
2023-05-11T18:28:34.086Z,15.27
2023-05-11T18:29:34.078Z,15.26
2023-05-11T18:30:34.070Z,15.27
2023-05-11T18:31:34.121Z,15.28
2023-05-11T18:32:34.080Z,15.12
2023-05-11T18:33:34.025Z,15.17
2023-05-11T18:34:34.016Z,15.11
2023-05-11T18:35:34.018Z,15.13
2023-05-11T18:36:33.995Z,15.13
2023-05-11T18:37:35.631Z,15.06
2023-05-11T18:38:33.969Z,15.05
2023-05-11T18:39:33.963Z,15.05
2023-05-11T18:40:33.962Z,14.98
2023-05-11T18:41:35.198Z,15.05
2023-05-11T18:42:35.342Z,15.06
2023-05-11T18:43:35.113Z,15.06
2023-05-11T18:44:35.096Z,15.12
2023-05-11T18:45:35.270Z,15.13
2023-05-11T18:46:35.092Z,15.17
2023-05-11T18:47:35.061Z,15.15
2023-05-11T18:48:35.043Z,15.13
2023-05-11T18:49:35.058Z,15.15
2023-05-11T18:50:35.040Z,15.03
2023-05-11T18:51:34.991Z,14.88
2023-05-11T18:52:34.977Z,14.95
2023-05-11T18:53:34.961Z,14.86
2023-05-11T18:54:35.003Z,14.65
2023-05-11T18:55:44.689Z,14.65
2023-05-11T18:56:36.935Z,14.78
2023-05-11T18:57:34.941Z,14.72
2023-05-11T18:58:34.933Z,14.74
2023-05-11T18:59:34.913Z,14.81
2023-05-11T19:00:34.887Z,14.81
2023-05-11T19:01:47.009Z,14.88
2023-05-11T19:02:36.931Z,14.78
2023-05-11T19:03:34.854Z,14.86
2023-05-11T19:04:34.849Z,14.88
2023-05-11T19:05:34.811Z,14.81
2023-05-11T19:06:35.052Z,14.78
2023-05-11T19:07:34.815Z,14.88
2023-05-11T19:08:34.810Z,14.88
2023-05-11T19:09:34.824Z,14.90
2023-05-11T19:10:34.817Z,14.78
2023-05-11T19:11:34.799Z,14.84
2023-05-11T19:12:34.796Z,14.78
2023-05-11T19:13:34.785Z,14.83
2023-05-11T19:14:34.744Z,14.87
2023-05-11T19:15:35.733Z,14.84
2023-05-11T19:16:34.774Z,14.72
2023-05-11T19:17:34.723Z,14.87
2023-05-11T19:18:34.782Z,14.75
2023-05-11T19:19:34.714Z,14.78
2023-05-11T19:20:34.719Z,14.71
2023-05-11T19:21:34.690Z,14.68
2023-05-11T19:22:34.671Z,14.57
2023-05-11T19:23:34.723Z,14.57
2023-05-11T19:24:34.705Z,14.69
2023-05-11T19:25:34.605Z,14.60
2023-05-11T19:26:34.600Z,14.65
2023-05-11T19:27:34.607Z,14.68
2023-05-11T19:28:34.582Z,14.65
2023-05-11T19:29:34.579Z,14.65
2023-05-11T19:30:34.562Z,14.74
2023-05-11T19:31:34.629Z,14.62
2023-05-11T19:32:34.575Z,14.54
2023-05-11T19:33:34.533Z,14.54
2023-05-11T19:34:34.515Z,14.52
2023-05-11T19:35:34.507Z,14.60
2023-05-11T19:36:34.512Z,14.62
2023-05-11T19:37:34.494Z,14.56
2023-05-11T19:38:34.469Z,14.56
2023-05-11T19:39:35.483Z,14.52
2023-05-11T19:40:44.501Z,14.54
2023-05-11T19:41:36.456Z,14.53
2023-05-11T19:42:39.177Z,14.53
2023-05-11T19:43:36.434Z,14.46
2023-05-11T19:44:34.441Z,14.46
2023-05-11T19:45:34.417Z,14.53
2023-05-11T19:46:34.697Z,14.42
2023-05-11T19:47:34.388Z,14.46
2023-05-11T19:48:34.373Z,14.42
2023-05-11T19:49:34.354Z,14.44
2023-05-11T19:50:34.361Z,14.42
2023-05-11T19:51:34.396Z,14.42
2023-05-11T19:52:34.339Z,14.46
2023-05-11T19:53:34.328Z,14.46
2023-05-11T19:54:34.300Z,14.31
2023-05-11T19:55:34.308Z,14.44
2023-05-11T19:56:34.327Z,14.31
2023-05-11T19:57:34.372Z,14.27
2023-05-11T19:58:34.265Z,14.35
2023-05-11T19:59:34.265Z,14.28
2023-05-11T20:00:34.254Z,14.28
2023-05-11T20:01:34.256Z,14.17
2023-05-11T20:02:34.378Z,14.29
2023-05-11T20:03:34.339Z,14.35
2023-05-11T20:04:34.281Z,14.20
2023-05-11T20:05:34.245Z,14.28
2023-05-11T20:06:34.220Z,14.32
2023-05-11T20:07:34.205Z,14.21
2023-05-11T20:08:34.203Z,14.21
2023-05-11T20:09:34.169Z,14.14
2023-05-11T20:10:34.175Z,14.17
2023-05-11T20:11:34.151Z,14.20
2023-05-11T20:12:34.158Z,14.16
2023-05-11T20:13:34.126Z,14.09
2023-05-11T20:14:34.131Z,14.12
2023-05-11T20:15:34.142Z,14.07
2023-05-11T20:16:34.111Z,14.13
2023-05-11T20:17:34.101Z,14.07
2023-05-11T20:18:34.104Z,13.94
2023-05-11T20:19:34.076Z,13.95
2023-05-11T20:20:34.063Z,13.96
2023-05-11T20:21:34.037Z,13.92
2023-05-11T20:22:34.032Z,13.92
2023-05-11T20:23:35.291Z,13.99
2023-05-11T20:24:34.027Z,13.87
2023-05-11T20:25:34.007Z,13.94
2023-05-11T20:26:34.013Z,13.91
2023-05-11T20:27:34.586Z,13.84
2023-05-11T20:28:33.993Z,13.91